Latest Coastal Weather Observations for Aireys Inlet

IDV60701

Issued at 1:12 am EST Thursday 3 September 2026 (issued every 10 minutes, with the page automatically refreshed every 10 minutes)

About coastal observations | Map of coastal stations | Coastal observations for VIC | Marine services | Other Formats
Station Details ID: 090180 Name: AIREYS INLET Lat: -38.46 Lon: 144.09 Height: 105.0 m
Data from the previous 72 hours. | See also: Recent months at Aireys Inlet
Date/Time
EST
Wind Sea
Height
m
Swell Vis
km
Cloud Weather Temp
°C
Press
MSL
hPa
Rain since
9am
mm
Dir  Spd
kts
Gust
kts
Height
m
Period
s
Dir
03/01:00am NW 22 34 - - - - - - - 11.0 - 0.0
03/12:30am NW 18 30 - - - - - - - 10.9 - 0.0
03/12:15am NW 15 27 - - - - - - - 11.0 - 0.0
03/12:00am NW 11 23 - - - - - - - 11.0 - 0.0
 
Date/Time
EST
Wind Sea
Height
m
Swell Vis
km
Cloud Weather Temp
°C
Press
MSL
hPa
Rain since
9am
mm
Dir  Spd
kts
Gust
kts
Height
m
Period
s
Dir
02/11:30pm NW 7 15 - - - - - - - 11.2 - 0.0
02/11:00pm N 4 9 - - - - - - - 11.1 - 0.0
02/10:30pm N 5 17 - - - - - - - 11.4 - 0.0
02/10:00pm NNE 5 12 - - - - - - - 11.4 - 0.0
02/09:30pm E 3 5 - - - - - - - 11.4 - 0.0
02/09:00pm N 5 9 - - - - - - - 11.7 - 0.0
02/08:30pm N 3 9 - - - - - - - 11.7 - 0.0
02/08:00pm SSW 3 9 - - - - - - - 11.9 - 0.0
02/07:30pm WNW 6 13 - - - - - - - 11.8 - 0.0
02/07:00pm W 4 12 - - - - - - - 11.8 - 0.0
02/06:30pm NW 5 17 - - - - - - - 11.9 - 0.0
02/06:00pm WNW 5 10 - - - - - - - 11.9 - 0.0
02/05:30pm NW 5 15 - - - - - - - 12.8 - 0.0
02/05:00pm WNW 7 12 - - - - - - - 13.3 - 0.0
02/04:30pm NW 11 19 - - - - - - - 13.9 - 0.0
02/04:00pm NW 7 14 - - - - - - - 14.8 - 0.0
02/03:30pm NW 9 21 - - - - - - - 15.2 - 0.0
02/03:00pm NW 14 23 - - - - - - - 14.1 - 0.0
02/02:30pm WNW 11 19 - - - - - - - 13.4 - 0.0
02/02:00pm NW 8 13 - - - - - - - 13.1 - 0.0
02/01:30pm WNW 12 19 - - - - - - - 12.7 - 0.0
02/01:00pm NW 6 10 - - - - - - - 13.1 - 0.0
02/12:30pm NW 8 15 - - - - - - - 12.6 - 0.0
02/12:00pm NW 11 21 - - - - - - - 12.6 - 0.0
02/11:30am NW 7 13 - - - - - - - 12.6 - 0.0
02/11:00am NW 6 10 - - - - - - - 12.8 - 0.0
02/10:30am NW 7 11 - - - - - - - 12.3 - 0.0
02/10:00am NW 7 12 - - - - - - - 12.3 - 0.0
02/09:30am NW 4 7 - - - - - - - 11.9 - 0.0
02/09:00am NW 4 6 - - - - - - - 11.4 - 3.8
02/08:30am NNW 3 6 - - - - - - - 10.7 - 3.8
02/08:00am WNW 4 8 - - - - - - - 10.4 - 3.8
02/07:30am W 4 6 - - - - - - - 9.9 - 3.8
02/07:00am W 5 6 - - - - - - - 9.8 - 3.8
02/06:30am W 7 14 - - - - - - - 9.6 - 3.8
02/06:00am W 7 12 - - - - - - - 9.3 - 3.8
02/05:30am W 6 9 - - - - - - - 9.5 - 3.8
02/05:00am W 7 9 - - - - - - - 9.9 - 3.8
02/04:30am WNW 7 11 - - - - - - - 10.1 - 3.8
02/04:00am W 6 10 - - - - - - - 10.5 - 3.8
02/03:30am WNW 7 10 - - - - - - - 10.7 - 3.8
02/03:00am W 6 8 - - - - - - - 10.6 - 3.8
02/02:30am WNW 7 11 - - - - - - - 11.0 - 3.8
02/02:00am WNW 6 9 - - - - - - - 11.8 - 3.8
02/01:30am NW 5 6 - - - - - - - 12.5 - 3.8
02/01:00am WSW 6 11 - - - - - - - 12.7 - 3.6
02/12:30am WNW 6 10 - - - - - - - 13.5 - 3.6
02/12:00am WNW 10 15 - - - - - - Recent precip. 13.6 - 3.4
 
Date/Time
EST
Wind Sea
Height
m
Swell Vis
km
Cloud Weather Temp
°C
Press
MSL
hPa
Rain since
9am
mm
Dir  Spd
kts
Gust
kts
Height
m
Period
s
Dir
01/11:30pm WNW 8 14 - - - - - - - 13.5 - 3.4
01/11:00pm NW 6 12 - - - - - - - 13.5 - 3.2
01/10:30pm NW 9 15 - - - - - - - 13.4 - 3.2
01/10:00pm NW 9 16 - - - - - - - 13.4 - 3.2
01/09:30pm NW 5 10 - - - - - - - 13.5 - 3.0
01/09:00pm NNW 8 16 - - - - - - Rain 13.8 - 2.6
01/08:30pm NNW 11 21 - - - - - - - 13.9 - 2.0
01/08:00pm NNW 13 22 - - - - - - - 14.1 - 1.0
01/07:30pm NNW 9 17 - - - - - - - 15.2 - 0.4
01/07:00pm NNW 9 18 - - - - - - - 14.8 - 0.4
01/06:30pm N 3 6 - - - - - - - 15.2 - 0.2
01/06:00pm NW 7 13 - - - - - - Rain 15.5 - 0.2
01/05:30pm NNW 11 21 - - - - - - - 16.4 - 0.0
01/05:00pm NNW 14 25 - - - - - - - 17.3 - 0.0
01/04:33pm NNW 13 22 - - - - - - - 18.3 - 0.0
01/04:30pm NNW 12 24 - - - - - - - 18.4 - 0.0
01/04:18pm NNW 15 26 - - - - - - - 18.5 - 0.0
01/04:00pm NNW 10 19 - - - - - - - 18.9 - 0.0
01/03:41pm NNW 13 23 - - - - - - - 19.1 - 0.0
01/03:30pm NNW 14 25 - - - - - - - 19.2 - 0.0
01/03:16pm NNW 15 27 - - - - - - - 19.3 - 0.0
01/03:11pm NNW 14 27 - - - - - - - 19.3 - 0.0
01/03:00pm NNW 16 29 - - - - - - - 19.3 - 0.0
01/02:56pm NNW 15 29 - - - - - - - 19.3 - 0.0
01/02:31pm NNW 14 23 - - - - - - - 19.5 - 0.0
01/02:30pm NNW 14 31 - - - - - - - 19.5 - 0.0
01/02:00pm NNW 15 32 - - - - - - - 19.9 - 0.0
01/01:52pm NNW 15 27 - - - - - - - 20.3 - 0.0
01/01:48pm NNW 15 24 - - - - - - - 20.2 - 0.0
01/01:30pm NNW 19 32 - - - - - - - 20.6 - 0.0
01/01:00pm NNW 16 32 - - - - - - - 20.6 - 0.0
01/12:45pm NNW 20 35 - - - - - - - 20.4 - 0.0
01/12:35pm NNW 15 33 - - - - - - - 20.1 - 0.0
01/12:30pm NNW 12 20 - - - - - - - 20.1 - 0.0
01/12:00pm N 12 21 - - - - - - - 19.3 - 0.0
01/11:57am N 11 21 - - - - - - - 19.3 - 0.0
01/11:30am NNW 15 31 - - - - - - - 18.4 - 0.0
01/11:03am NNW 15 27 - - - - - - - 18.4 - 0.0
01/11:00am NNW 14 27 - - - - - - - 18.2 - 0.0
01/10:56am NNW 13 20 - - - - - - - 18.4 - 0.0
01/10:40am NNW 15 26 - - - - - - - 17.9 - 0.0
01/10:30am N 13 24 - - - - - - - 17.8 - 0.0
01/10:15am N 14 23 - - - - - - - 16.9 - 0.0
01/10:00am NNW 15 27 - - - - - - - 16.4 - 0.0
01/09:55am NNW 15 26 - - - - - - - 16.4 - 0.0
01/09:50am NNW 15 25 - - - - - - - 16.1 - 0.0
01/09:30am NNW 15 24 - - - - - - - 15.6 - 0.0
01/09:00am N 18 29 - - - - - - - 14.5 - 0.0
01/08:30am NNW 18 30 - - - - - - - 13.9 - 0.0
01/08:00am NNW 16 25 - - - - - - - 13.6 - 0.0
01/07:58am NNW 15 25 - - - - - - - 13.6 - 0.0
01/07:30am NNW 13 22 - - - - - - - 13.4 - 0.0
01/07:00am NNW 12 21 - - - - - - - 13.1 - 0.0
01/06:30am NNW 10 17 - - - - - - - 12.9 - 0.0
01/06:00am N 7 14 - - - - - - - 11.5 - 0.0
01/05:30am N 8 13 - - - - - - - 11.0 - 0.0
01/05:00am N 10 15 - - - - - - - 10.9 - 0.0
01/04:30am N 10 15 - - - - - - - 10.9 - 0.0
01/04:00am N 7 11 - - - - - - - 10.8 - 0.0
01/03:30am N 7 11 - - - - - - - 10.9 - 0.0
01/03:00am N 6 9 - - - - - - - 11.0 - 0.0
01/02:30am N 6 7 - - - - - - - 11.7 - 0.0
01/02:00am NNW 7 10 - - - - - - - 11.4 - 0.0
01/01:30am NNW 7 10 - - - - - - - 11.6 - 0.0
01/01:00am NNW 8 11 - - - - - - - 12.3 - 0.0
01/12:30am N 8 10 - - - - - - - 11.6 - 0.0
01/12:00am N 4 7 - - - - - - - 10.9 - 0.0
 
Date/Time
EST
Wind Sea
Height
m
Swell Vis
km
Cloud Weather Temp
°C
Press
MSL
hPa
Rain since
9am
mm
Dir  Spd
kts
Gust
kts
Height
m
Period
s
Dir
31/11:30pm N 5 7 - - - - - - - 11.1 - 0.0
31/11:00pm NNW 4 7 - - - - - - - 10.9 - 0.0
31/10:30pm NNW 6 8 - - - - - - - 11.0 - 0.0
31/10:00pm NNW 7 8 - - - - - - - 11.7 - 0.0
31/09:30pm NNW 7 9 - - - - - - - 9.9 - 0.0
31/09:00pm NNW 8 10 - - - - - - - 10.2 - 0.0
31/08:30pm NNW 5 7 - - - - - - - 9.5 - 0.0
31/08:00pm NNW 6 7 - - - - - - - 9.5 - 0.0
31/07:30pm NE 6 7 - - - - - - - 9.3 - 0.0
31/07:00pm NNE 4 5 - - - - - - - 9.3 - 0.0
31/06:30pm NE 3 4 - - - - - - - 9.5 - 0.0
31/06:00pm ENE 3 3 - - - - - - - 10.6 - 0.0
31/05:30pm E 2 3 - - - - - - - 12.2 - 0.0
31/05:00pm ESE 2 2 - - - - - - - 13.2 - 0.0
31/04:30pm ESE 2 3 - - - - - - - 13.8 - 0.0
31/04:00pm ESE 3 4 - - - - - - - 14.2 - 0.0
31/03:30pm ESE 3 4 - - - - - - - 14.2 - 0.0
31/03:00pm ESE 5 7 - - - - - - - 14.7 - 0.0
31/02:30pm E 4 8 - - - - - - - 14.5 - 0.0
31/02:00pm E 5 7 - - - - - - - 14.8 - 0.0
31/01:30pm E 4 7 - - - - - - - 14.7 - 0.0
31/01:00pm ESE 5 8 - - - - - - - 14.2 - 0.0
31/12:30pm ESE 6 9 - - - - - - - 14.1 - 0.0
31/12:00pm E 6 9 - - - - - - - 14.1 - 0.0
31/11:30am E 6 9 - - - - - - - 13.7 - 0.0
31/11:00am E 4 7 - - - - - - - 13.0 - 0.0
31/10:30am ENE 2 4 - - - - - - - 11.5 - 0.0
31/10:00am SE 1 3 - - - - - - - 10.9 - 0.0
31/09:30am E 3 4 - - - - - - - 10.4 - 0.0
31/09:00am N 2 3 - - - - - - - 9.4 - 0.0
31/08:30am N 2 3 - - - - - - - 8.4 - 0.0
31/08:00am NNW 3 4 - - - - - - - 7.6 - 0.0
31/07:30am NW 5 9 - - - - - - - 7.1 - 0.0
31/07:00am NNW 6 9 - - - - - - - 7.0 - 0.0
31/06:30am NW 7 10 - - - - - - - 7.4 - 0.0
31/06:00am NW 6 9 - - - - - - - 8.1 - 0.0
31/05:30am NW 6 8 - - - - - - - 8.6 - 0.0
31/05:00am NW 5 8 - - - - - - - 8.8 - 0.0
31/04:30am NNW 5 7 - - - - - - - 9.3 - 0.0
31/04:00am N 2 4 - - - - - - - 9.6 - 0.0
31/03:30am N 3 4 - - - - - - - 9.4 - 0.0
31/03:00am NE 1 2 - - - - - - - 9.9 - 0.0
31/02:30am CALM 0 0 - - - - - - - 10.2 - 0.0
31/02:00am S 1 3 - - - - - - - 10.1 - 0.0
31/01:30am SW 1 4 - - - - - - - 9.7 - 0.0

Other formats

Comma delimited format used in spreadsheet applications
http://www.bom.gov.au/fwo/IDV60701/IDV60701.94846.axf

JavaScript Object Notation format (JSON) in row-major order
http://www.bom.gov.au/fwo/IDV60701/IDV60701.94846.json

Data quality

Most of these data are generated automatically and are frequently updated. Quality checks on data are not normally performed. It is possible for incorrect values to appear. Refer to information at About Latest Weather Observations and please check the disclaimer before using these data.